Terminal Aerodrome Forecast
Issued by NWS

Home | Current Version | Previous Version | Text Only | Print | Product List | Glossary On
Versions: 1 2 3 4 5 6 7 8 9 10 11 12 13 14
649
FTUS41 KBTV 300529
TAFMSS
TAF
KMSS 300529Z 3006/3106 14005KT P6SM SCT250
     FM300900 15005KT P6SM VCSH SCT090
     FM301300 18008KT P6SM VCSH BKN070
     FM301900 19012G18KT P6SM -SHRA BKN060
     FM302200 20012KT P6SM VCSH SCT150
     FM310000 20010KT P6SM SCT150
     FM310300 20006KT P6SM SCT150=

USA.gov is the U.S. government's official web portal to all federal, state and local government web resources and services.